Terminal Aerodrome Forecast
Issued by NWS Atlanta, GA

Home | Current Version | Previous Version | Text Only | Print | Product List | Glossary On
Versions: 1 2 3 4 5 6 7 8 9 10 11 12 13 14 15 16 17 18 19 20
956
FTUS42 KFFC 251139
TAFCSG
TAF
KCSG 251139Z 2512/2612 14005KT P6SM SCT045
     FM251400 16010KT P6SM BKN050
     FM252300 17006KT P6SM VCSH BKN035 PROB30 2603/2609 4SM TSRA
      BKN025CB
     FM260900 15005KT P6SM VCSH BKN015=

USA.gov is the U.S. government's official web portal to all federal, state and local government web resources and services.